sensor_id;sensor_type;location;lat;lon;timestamp;P1;durP1;ratioP1;P2;durP2;ratioP2
67867;SDS011;54672;46.096;14.470;2023-07-16T00:00:49;7.15;;;4.45;;
67867;SDS011;54672;46.096;14.470;2023-07-16T00:03:15;6.50;;;4.35;;
67867;SDS011;54672;46.096;14.470;2023-07-16T00:05:40;10.30;;;5.40;;
67867;SDS011;54672;46.096;14.470;2023-07-16T00:08:06;10.07;;;6.25;;
67867;SDS011;54672;46.096;14.470;2023-07-16T00:10:35;13.65;;;6.32;;
67867;SDS011;54672;46.096;14.470;2023-07-16T00:13:01;10.10;;;5.75;;
67867;SDS011;54672;46.096;14.470;2023-07-16T00:15:28;11.82;;;5.07;;
67867;SDS011;54672;46.096;14.470;2023-07-16T00:17:53;7.18;;;4.85;;
67867;SDS011;54672;46.096;14.470;2023-07-16T00:20:20;14.57;;;5.18;;
67867;SDS011;54672;46.096;14.470;2023-07-16T00:22:45;7.88;;;5.00;;
67867;SDS011;54672;46.096;14.470;2023-07-16T00:25:11;7.75;;;4.60;;
67867;SDS011;54672;46.096;14.470;2023-07-16T00:27:36;7.93;;;4.47;;
67867;SDS011;54672;46.096;14.470;2023-07-16T00:30:01;7.95;;;4.90;;
67867;SDS011;54672;46.096;14.470;2023-07-16T00:32:28;9.93;;;5.88;;
67867;SDS011;54672;46.096;14.470;2023-07-16T00:34:53;10.98;;;5.88;;
67867;SDS011;54672;46.096;14.470;2023-07-16T00:37:19;9.15;;;5.40;;
67867;SDS011;54672;46.096;14.470;2023-07-16T00:39:44;8.25;;;5.18;;
67867;SDS011;54672;46.096;14.470;2023-07-16T00:42:09;10.02;;;4.70;;
67867;SDS011;54672;46.096;14.470;2023-07-16T00:44:35;10.05;;;5.00;;
67867;SDS011;54672;46.096;14.470;2023-07-16T00:47:00;11.10;;;5.60;;
67867;SDS011;54672;46.096;14.470;2023-07-16T00:49:26;12.60;;;5.53;;
67867;SDS011;54672;46.096;14.470;2023-07-16T00:51:52;9.57;;;5.10;;
67867;SDS011;54672;46.096;14.470;2023-07-16T00:54:18;9.20;;;5.35;;
67867;SDS011;54672;46.096;14.470;2023-07-16T00:56:44;10.63;;;4.80;;
67867;SDS011;54672;46.096;14.470;2023-07-16T00:59:10;12.50;;;5.32;;
67867;SDS011;54672;46.096;14.470;2023-07-16T01:01:36;8.32;;;5.85;;
67867;SDS011;54672;46.096;14.470;2023-07-16T01:04:03;11.48;;;5.88;;
67867;SDS011;54672;46.096;14.470;2023-07-16T01:09:08;12.23;;;6.75;;
67867;SDS011;54672;46.096;14.470;2023-07-16T01:11:40;10.45;;;5.95;;
67867;SDS011;54672;46.096;14.470;2023-07-16T01:14:07;12.75;;;7.55;;
67867;SDS011;54672;46.096;14.470;2023-07-16T01:16:33;11.32;;;6.80;;
67867;SDS011;54672;46.096;14.470;2023-07-16T01:18:59;13.93;;;6.47;;
67867;SDS011;54672;46.096;14.470;2023-07-16T01:21:24;11.93;;;7.38;;
67867;SDS011;54672;46.096;14.470;2023-07-16T01:24:12;9.65;;;6.35;;
67867;SDS011;54672;46.096;14.470;2023-07-16T01:32:07;9.30;;;5.38;;
67867;SDS011;54672;46.096;14.470;2023-07-16T01:34:36;9.68;;;5.22;;
67867;SDS011;54672;46.096;14.470;2023-07-16T01:37:03;8.40;;;5.47;;
67867;SDS011;54672;46.096;14.470;2023-07-16T01:39:29;12.82;;;5.43;;
67867;SDS011;54672;46.096;14.470;2023-07-16T01:41:56;9.38;;;5.60;;
67867;SDS011;54672;46.096;14.470;2023-07-16T01:44:21;7.32;;;4.90;;
67867;SDS011;54672;46.096;14.470;2023-07-16T01:49:36;10.88;;;4.97;;
67867;SDS011;54672;46.096;14.470;2023-07-16T01:52:03;8.68;;;5.50;;
67867;SDS011;54672;46.096;14.470;2023-07-16T01:54:30;8.25;;;4.90;;
67867;SDS011;54672;46.096;14.470;2023-07-16T01:56:55;7.10;;;5.47;;
67867;SDS011;54672;46.096;14.470;2023-07-16T01:59:20;12.65;;;6.57;;
67867;SDS011;54672;46.096;14.470;2023-07-16T02:01:46;11.32;;;6.97;;
67867;SDS011;54672;46.096;14.470;2023-07-16T02:04:11;9.65;;;6.90;;
67867;SDS011;54672;46.096;14.470;2023-07-16T02:06:37;11.52;;;7.03;;
67867;SDS011;54672;46.096;14.470;2023-07-16T02:09:02;14.50;;;7.20;;
67867;SDS011;54672;46.096;14.470;2023-07-16T02:11:28;13.70;;;6.88;;
67867;SDS011;54672;46.096;14.470;2023-07-16T02:13:54;10.88;;;7.60;;
67867;SDS011;54672;46.096;14.470;2023-07-16T02:16:19;13.15;;;8.20;;
67867;SDS011;54672;46.096;14.470;2023-07-16T02:18:45;11.10;;;6.57;;
67867;SDS011;54672;46.096;14.470;2023-07-16T02:21:10;10.15;;;6.43;;
67867;SDS011;54672;46.096;14.470;2023-07-16T02:23:36;22.20;;;6.50;;
67867;SDS011;54672;46.096;14.470;2023-07-16T02:26:01;10.82;;;6.60;;
67867;SDS011;54672;46.096;14.470;2023-07-16T02:28:27;11.23;;;6.40;;
67867;SDS011;54672;46.096;14.470;2023-07-16T02:30:52;9.77;;;5.80;;
67867;SDS011;54672;46.096;14.470;2023-07-16T02:33:17;9.90;;;6.40;;
67867;SDS011;54672;46.096;14.470;2023-07-16T02:35:49;10.98;;;6.28;;
67867;SDS011;54672;46.096;14.470;2023-07-16T02:38:16;8.73;;;6.00;;
67867;SDS011;54672;46.096;14.470;2023-07-16T02:40:43;11.27;;;6.47;;
67867;SDS011;54672;46.096;14.470;2023-07-16T02:43:12;11.32;;;6.10;;
67867;SDS011;54672;46.096;14.470;2023-07-16T02:45:38;10.40;;;6.18;;
67867;SDS011;54672;46.096;14.470;2023-07-16T02:48:04;12.48;;;6.57;;
67867;SDS011;54672;46.096;14.470;2023-07-16T02:50:30;11.63;;;6.10;;
67867;SDS011;54672;46.096;14.470;2023-07-16T02:52:55;12.50;;;6.07;;
67867;SDS011;54672;46.096;14.470;2023-07-16T02:55:20;14.27;;;7.10;;
67867;SDS011;54672;46.096;14.470;2023-07-16T02:57:46;9.95;;;6.55;;
67867;SDS011;54672;46.096;14.470;2023-07-16T03:00:11;11.07;;;6.28;;
67867;SDS011;54672;46.096;14.470;2023-07-16T03:02:37;10.02;;;6.10;;
67867;SDS011;54672;46.096;14.470;2023-07-16T03:05:02;11.38;;;6.35;;
67867;SDS011;54672;46.096;14.470;2023-07-16T03:07:28;10.10;;;6.40;;
67867;SDS011;54672;46.096;14.470;2023-07-16T03:09:54;12.68;;;7.32;;
67867;SDS011;54672;46.096;14.470;2023-07-16T03:12:19;9.00;;;6.30;;
67867;SDS011;54672;46.096;14.470;2023-07-16T03:14:44;9.07;;;6.40;;
67867;SDS011;54672;46.096;14.470;2023-07-16T03:17:10;13.20;;;6.97;;
67867;SDS011;54672;46.096;14.470;2023-07-16T03:19:35;9.90;;;6.10;;
67867;SDS011;54672;46.096;14.470;2023-07-16T03:22:01;11.43;;;6.40;;
67867;SDS011;54672;46.096;14.470;2023-07-16T03:24:27;11.18;;;6.18;;
67867;SDS011;54672;46.096;14.470;2023-07-16T03:26:53;9.35;;;6.43;;
67867;SDS011;54672;46.096;14.470;2023-07-16T03:29:18;10.38;;;6.20;;
67867;SDS011;54672;46.096;14.470;2023-07-16T03:31:43;8.55;;;5.75;;
67867;SDS011;54672;46.096;14.470;2023-07-16T03:34:09;10.00;;;6.53;;
67867;SDS011;54672;46.096;14.470;2023-07-16T03:36:34;8.90;;;6.43;;
67867;SDS011;54672;46.096;14.470;2023-07-16T03:38:59;11.88;;;6.40;;
67867;SDS011;54672;46.096;14.470;2023-07-16T03:41:25;9.15;;;5.90;;
67867;SDS011;54672;46.096;14.470;2023-07-16T03:43:50;10.40;;;6.40;;
67867;SDS011;54672;46.096;14.470;2023-07-16T03:46:16;10.52;;;6.22;;
67867;SDS011;54672;46.096;14.470;2023-07-16T03:48:41;15.18;;;6.53;;
67867;SDS011;54672;46.096;14.470;2023-07-16T03:51:06;11.07;;;6.10;;
67867;SDS011;54672;46.096;14.470;2023-07-16T03:53:32;10.65;;;5.60;;
67867;SDS011;54672;46.096;14.470;2023-07-16T03:55:57;9.75;;;5.53;;
67867;SDS011;54672;46.096;14.470;2023-07-16T03:58:22;11.65;;;5.75;;
67867;SDS011;54672;46.096;14.470;2023-07-16T04:00:48;10.45;;;5.95;;
67867;SDS011;54672;46.096;14.470;2023-07-16T04:03:13;8.45;;;5.78;;
67867;SDS011;54672;46.096;14.470;2023-07-16T04:05:39;8.35;;;5.78;;
67867;SDS011;54672;46.096;14.470;2023-07-16T04:08:04;9.60;;;6.20;;
67867;SDS011;54672;46.096;14.470;2023-07-16T04:10:29;13.60;;;5.90;;
67867;SDS011;54672;46.096;14.470;2023-07-16T04:12:55;7.75;;;5.45;;
67867;SDS011;54672;46.096;14.470;2023-07-16T04:15:20;8.65;;;6.15;;
67867;SDS011;54672;46.096;14.470;2023-07-16T04:17:45;9.90;;;5.82;;
67867;SDS011;54672;46.096;14.470;2023-07-16T04:20:11;8.70;;;5.47;;
67867;SDS011;54672;46.096;14.470;2023-07-16T04:22:36;8.88;;;5.75;;
67867;SDS011;54672;46.096;14.470;2023-07-16T04:25:02;10.57;;;5.70;;
67867;SDS011;54672;46.096;14.470;2023-07-16T04:27:28;10.05;;;5.38;;
67867;SDS011;54672;46.096;14.470;2023-07-16T04:29:54;8.18;;;5.20;;
67867;SDS011;54672;46.096;14.470;2023-07-16T04:32:19;7.60;;;5.10;;
67867;SDS011;54672;46.096;14.470;2023-07-16T04:34:45;9.23;;;5.22;;
67867;SDS011;54672;46.096;14.470;2023-07-16T04:37:10;11.55;;;5.90;;
67867;SDS011;54672;46.096;14.470;2023-07-16T04:39:35;8.63;;;5.70;;
67867;SDS011;54672;46.096;14.470;2023-07-16T04:42:01;9.20;;;5.82;;
67867;SDS011;54672;46.096;14.470;2023-07-16T04:44:26;10.05;;;5.55;;
67867;SDS011;54672;46.096;14.470;2023-07-16T04:46:52;7.10;;;5.28;;
67867;SDS011;54672;46.096;14.470;2023-07-16T04:49:17;8.63;;;5.43;;
67867;SDS011;54672;46.096;14.470;2023-07-16T04:51:42;8.30;;;5.30;;
67867;SDS011;54672;46.096;14.470;2023-07-16T04:54:08;9.18;;;5.03;;
67867;SDS011;54672;46.096;14.470;2023-07-16T04:56:34;7.63;;;5.60;;
67867;SDS011;54672;46.096;14.470;2023-07-16T04:59:00;6.50;;;5.53;;
67867;SDS011;54672;46.096;14.470;2023-07-16T05:01:25;8.90;;;5.72;;
67867;SDS011;54672;46.096;14.470;2023-07-16T05:03:51;8.23;;;5.65;;
67867;SDS011;54672;46.096;14.470;2023-07-16T05:06:17;8.45;;;5.65;;
67867;SDS011;54672;46.096;14.470;2023-07-16T05:08:43;7.90;;;5.60;;
67867;SDS011;54672;46.096;14.470;2023-07-16T05:11:08;7.05;;;5.53;;
67867;SDS011;54672;46.096;14.470;2023-07-16T05:13:33;8.23;;;5.18;;
67867;SDS011;54672;46.096;14.470;2023-07-16T05:15:59;7.68;;;4.93;;
67867;SDS011;54672;46.096;14.470;2023-07-16T05:18:24;9.00;;;5.53;;
67867;SDS011;54672;46.096;14.470;2023-07-16T05:20:50;8.88;;;5.72;;
67867;SDS011;54672;46.096;14.470;2023-07-16T05:23:15;10.43;;;5.40;;
67867;SDS011;54672;46.096;14.470;2023-07-16T05:25:47;8.30;;;5.07;;
67867;SDS011;54672;46.096;14.470;2023-07-16T05:28:17;7.32;;;5.55;;
67867;SDS011;54672;46.096;14.470;2023-07-16T05:30:43;6.60;;;5.50;;
67867;SDS011;54672;46.096;14.470;2023-07-16T05:33:09;7.10;;;5.60;;
67867;SDS011;54672;46.096;14.470;2023-07-16T05:35:36;8.82;;;5.28;;
67867;SDS011;54672;46.096;14.470;2023-07-16T05:38:01;8.00;;;5.43;;
67867;SDS011;54672;46.096;14.470;2023-07-16T05:40:26;9.98;;;5.80;;
67867;SDS011;54672;46.096;14.470;2023-07-16T05:42:52;8.13;;;5.88;;
67867;SDS011;54672;46.096;14.470;2023-07-16T05:45:17;6.05;;;5.18;;
67867;SDS011;54672;46.096;14.470;2023-07-16T05:47:43;8.30;;;5.63;;
67867;SDS011;54672;46.096;14.470;2023-07-16T05:50:08;7.75;;;5.45;;
67867;SDS011;54672;46.096;14.470;2023-07-16T05:52:34;10.50;;;5.65;;
67867;SDS011;54672;46.096;14.470;2023-07-16T05:54:59;8.90;;;5.82;;
67867;SDS011;54672;46.096;14.470;2023-07-16T05:57:25;6.47;;;5.50;;
67867;SDS011;54672;46.096;14.470;2023-07-16T05:59:50;7.13;;;5.47;;
67867;SDS011;54672;46.096;14.470;2023-07-16T06:02:16;7.38;;;5.88;;
67867;SDS011;54672;46.096;14.470;2023-07-16T06:04:41;7.00;;;5.70;;
67867;SDS011;54672;46.096;14.470;2023-07-16T06:07:06;12.75;;;5.28;;
67867;SDS011;54672;46.096;14.470;2023-07-16T06:09:32;5.97;;;5.07;;
67867;SDS011;54672;46.096;14.470;2023-07-16T06:11:58;8.68;;;5.53;;
67867;SDS011;54672;46.096;14.470;2023-07-16T06:14:23;10.45;;;5.47;;
67867;SDS011;54672;46.096;14.470;2023-07-16T06:16:49;12.40;;;5.97;;
67867;SDS011;54672;46.096;14.470;2023-07-16T06:19:14;6.80;;;5.05;;
67867;SDS011;54672;46.096;14.470;2023-07-16T06:21:40;8.70;;;5.68;;
67867;SDS011;54672;46.096;14.470;2023-07-16T06:24:05;7.13;;;6.00;;
67867;SDS011;54672;46.096;14.470;2023-07-16T06:26:31;10.40;;;5.95;;
67867;SDS011;54672;46.096;14.470;2023-07-16T06:28:56;8.30;;;5.65;;
67867;SDS011;54672;46.096;14.470;2023-07-16T06:31:21;10.27;;;5.70;;
67867;SDS011;54672;46.096;14.470;2023-07-16T06:33:47;8.73;;;5.40;;
67867;SDS011;54672;46.096;14.470;2023-07-16T06:36:13;8.40;;;5.15;;
67867;SDS011;54672;46.096;14.470;2023-07-16T06:38:39;6.97;;;4.85;;
67867;SDS011;54672;46.096;14.470;2023-07-16T06:41:05;7.45;;;5.40;;
67867;SDS011;54672;46.096;14.470;2023-07-16T06:43:30;9.18;;;5.35;;
67867;SDS011;54672;46.096;14.470;2023-07-16T06:45:55;8.50;;;5.70;;
67867;SDS011;54672;46.096;14.470;2023-07-16T06:48:21;6.45;;;5.47;;
67867;SDS011;54672;46.096;14.470;2023-07-16T06:50:46;7.63;;;5.70;;
67867;SDS011;54672;46.096;14.470;2023-07-16T06:53:12;8.23;;;5.60;;
67867;SDS011;54672;46.096;14.470;2023-07-16T06:55:37;6.53;;;5.05;;
67867;SDS011;54672;46.096;14.470;2023-07-16T06:58:02;8.25;;;5.30;;
67867;SDS011;54672;46.096;14.470;2023-07-16T07:00:28;8.82;;;5.25;;
67867;SDS011;54672;46.096;14.470;2023-07-16T07:02:54;7.35;;;5.13;;
67867;SDS011;54672;46.096;14.470;2023-07-16T07:05:19;7.22;;;5.38;;
67867;SDS011;54672;46.096;14.470;2023-07-16T07:07:45;10.35;;;5.50;;
67867;SDS011;54672;46.096;14.470;2023-07-16T07:10:11;8.38;;;5.22;;
67867;SDS011;54672;46.096;14.470;2023-07-16T07:12:39;8.75;;;6.30;;
67867;SDS011;54672;46.096;14.470;2023-07-16T07:15:05;8.40;;;5.50;;
67867;SDS011;54672;46.096;14.470;2023-07-16T07:17:31;6.97;;;5.47;;
67867;SDS011;54672;46.096;14.470;2023-07-16T07:19:57;9.48;;;6.30;;
67867;SDS011;54672;46.096;14.470;2023-07-16T07:22:22;8.13;;;5.78;;
67867;SDS011;54672;46.096;14.470;2023-07-16T07:24:48;6.80;;;5.60;;
67867;SDS011;54672;46.096;14.470;2023-07-16T07:27:14;8.88;;;5.53;;
67867;SDS011;54672;46.096;14.470;2023-07-16T07:29:39;7.43;;;5.43;;
67867;SDS011;54672;46.096;14.470;2023-07-16T07:32:05;8.38;;;5.80;;
67867;SDS011;54672;46.096;14.470;2023-07-16T07:34:31;7.47;;;5.63;;
67867;SDS011;54672;46.096;14.470;2023-07-16T07:36:56;7.93;;;5.22;;
67867;SDS011;54672;46.096;14.470;2023-07-16T07:39:21;7.63;;;5.40;;
67867;SDS011;54672;46.096;14.470;2023-07-16T07:41:47;9.73;;;5.90;;
67867;SDS011;54672;46.096;14.470;2023-07-16T07:44:12;8.18;;;5.10;;
67867;SDS011;54672;46.096;14.470;2023-07-16T07:46:38;9.10;;;4.95;;
67867;SDS011;54672;46.096;14.470;2023-07-16T07:49:03;8.43;;;5.25;;
67867;SDS011;54672;46.096;14.470;2023-07-16T07:51:28;8.35;;;5.28;;
67867;SDS011;54672;46.096;14.470;2023-07-16T07:53:54;7.60;;;4.90;;
67867;SDS011;54672;46.096;14.470;2023-07-16T07:56:21;8.77;;;5.40;;
67867;SDS011;54672;46.096;14.470;2023-07-16T07:58:47;7.22;;;4.93;;
67867;SDS011;54672;46.096;14.470;2023-07-16T08:01:12;8.85;;;4.88;;
67867;SDS011;54672;46.096;14.470;2023-07-16T08:03:38;7.82;;;5.90;;
67867;SDS011;54672;46.096;14.470;2023-07-16T08:06:03;9.02;;;4.78;;
67867;SDS011;54672;46.096;14.470;2023-07-16T08:08:28;6.60;;;4.90;;
67867;SDS011;54672;46.096;14.470;2023-07-16T08:10:55;8.43;;;4.97;;
67867;SDS011;54672;46.096;14.470;2023-07-16T08:13:21;6.70;;;5.20;;
67867;SDS011;54672;46.096;14.470;2023-07-16T08:15:46;8.10;;;4.90;;
67867;SDS011;54672;46.096;14.470;2023-07-16T08:18:13;7.20;;;5.05;;
67867;SDS011;54672;46.096;14.470;2023-07-16T08:20:38;10.27;;;5.00;;
67867;SDS011;54672;46.096;14.470;2023-07-16T08:23:03;8.60;;;5.22;;
67867;SDS011;54672;46.096;14.470;2023-07-16T08:25:29;7.63;;;5.15;;
67867;SDS011;54672;46.096;14.470;2023-07-16T08:27:54;6.63;;;4.85;;
67867;SDS011;54672;46.096;14.470;2023-07-16T08:30:20;6.65;;;5.13;;
67867;SDS011;54672;46.096;14.470;2023-07-16T08:32:45;7.60;;;5.35;;
67867;SDS011;54672;46.096;14.470;2023-07-16T08:35:11;6.38;;;4.95;;
67867;SDS011;54672;46.096;14.470;2023-07-16T08:37:44;6.25;;;5.05;;
67867;SDS011;54672;46.096;14.470;2023-07-16T08:40:11;12.35;;;5.95;;
67867;SDS011;54672;46.096;14.470;2023-07-16T08:42:38;7.25;;;5.13;;
67867;SDS011;54672;46.096;14.470;2023-07-16T08:45:06;10.60;;;5.97;;
67867;SDS011;54672;46.096;14.470;2023-07-16T08:47:32;7.25;;;4.97;;
67867;SDS011;54672;46.096;14.470;2023-07-16T08:49:59;10.30;;;5.78;;
67867;SDS011;54672;46.096;14.470;2023-07-16T08:52:26;7.95;;;5.05;;
67867;SDS011;54672;46.096;14.470;2023-07-16T08:54:52;9.45;;;5.47;;
67867;SDS011;54672;46.096;14.470;2023-07-16T08:57:18;8.60;;;5.70;;
67867;SDS011;54672;46.096;14.470;2023-07-16T08:59:47;8.27;;;5.38;;
67867;SDS011;54672;46.096;14.470;2023-07-16T09:02:13;9.13;;;5.32;;
67867;SDS011;54672;46.096;14.470;2023-07-16T09:04:40;6.85;;;5.20;;
67867;SDS011;54672;46.096;14.470;2023-07-16T09:07:06;9.50;;;5.47;;
67867;SDS011;54672;46.096;14.470;2023-07-16T09:09:31;8.45;;;5.13;;
67867;SDS011;54672;46.096;14.470;2023-07-16T09:11:56;8.25;;;5.13;;
67867;SDS011;54672;46.096;14.470;2023-07-16T09:14:22;10.10;;;5.15;;
67867;SDS011;54672;46.096;14.470;2023-07-16T09:16:51;8.43;;;5.50;;
67867;SDS011;54672;46.096;14.470;2023-07-16T09:19:17;8.93;;;5.13;;
67867;SDS011;54672;46.096;14.470;2023-07-16T09:21:47;8.00;;;5.30;;
67867;SDS011;54672;46.096;14.470;2023-07-16T09:24:13;8.75;;;5.35;;
67867;SDS011;54672;46.096;14.470;2023-07-16T09:26:39;6.93;;;4.72;;
67867;SDS011;54672;46.096;14.470;2023-07-16T09:29:12;8.10;;;5.00;;
67867;SDS011;54672;46.096;14.470;2023-07-16T09:31:37;7.32;;;4.90;;
67867;SDS011;54672;46.096;14.470;2023-07-16T09:34:02;7.78;;;5.30;;
67867;SDS011;54672;46.096;14.470;2023-07-16T09:36:28;9.40;;;5.13;;
67867;SDS011;54672;46.096;14.470;2023-07-16T09:38:54;5.40;;;4.45;;
67867;SDS011;54672;46.096;14.470;2023-07-16T09:41:20;5.50;;;4.70;;
67867;SDS011;54672;46.096;14.470;2023-07-16T09:43:46;8.00;;;4.68;;
67867;SDS011;54672;46.096;14.470;2023-07-16T09:46:12;5.75;;;4.60;;
67867;SDS011;54672;46.096;14.470;2023-07-16T09:48:37;7.75;;;4.78;;
67867;SDS011;54672;46.096;14.470;2023-07-16T09:51:03;8.68;;;4.45;;
67867;SDS011;54672;46.096;14.470;2023-07-16T09:53:30;7.03;;;4.90;;
67867;SDS011;54672;46.096;14.470;2023-07-16T09:55:57;6.65;;;5.10;;
67867;SDS011;54672;46.096;14.470;2023-07-16T09:58:24;8.75;;;4.93;;
67867;SDS011;54672;46.096;14.470;2023-07-16T10:00:50;6.63;;;5.10;;
67867;SDS011;54672;46.096;14.470;2023-07-16T10:03:16;6.22;;;4.90;;
67867;SDS011;54672;46.096;14.470;2023-07-16T10:05:44;8.85;;;5.38;;
67867;SDS011;54672;46.096;14.470;2023-07-16T10:08:19;8.02;;;5.32;;
67867;SDS011;54672;46.096;14.470;2023-07-16T10:10:46;7.40;;;5.20;;
67867;SDS011;54672;46.096;14.470;2023-07-16T10:13:21;10.93;;;5.57;;
67867;SDS011;54672;46.096;14.470;2023-07-16T10:15:57;8.20;;;5.32;;
67867;SDS011;54672;46.096;14.470;2023-07-16T10:18:27;8.25;;;5.50;;
67867;SDS011;54672;46.096;14.470;2023-07-16T10:21:06;8.65;;;5.25;;
67867;SDS011;54672;46.096;14.470;2023-07-16T10:23:36;9.00;;;5.55;;
67867;SDS011;54672;46.096;14.470;2023-07-16T10:26:06;10.23;;;5.30;;
67867;SDS011;54672;46.096;14.470;2023-07-16T10:28:34;9.45;;;5.53;;
67867;SDS011;54672;46.096;14.470;2023-07-16T10:31:00;7.43;;;5.57;;
67867;SDS011;54672;46.096;14.470;2023-07-16T10:33:26;9.55;;;5.72;;
67867;SDS011;54672;46.096;14.470;2023-07-16T10:35:52;10.15;;;5.57;;
67867;SDS011;54672;46.096;14.470;2023-07-16T10:38:18;8.45;;;5.30;;
67867;SDS011;54672;46.096;14.470;2023-07-16T10:40:44;9.10;;;5.25;;
67867;SDS011;54672;46.096;14.470;2023-07-16T10:43:10;6.72;;;5.43;;
67867;SDS011;54672;46.096;14.470;2023-07-16T10:45:36;7.18;;;5.10;;
67867;SDS011;54672;46.096;14.470;2023-07-16T10:48:02;7.90;;;5.47;;
67867;SDS011;54672;46.096;14.470;2023-07-16T10:50:28;10.07;;;5.80;;
67867;SDS011;54672;46.096;14.470;2023-07-16T10:52:53;9.30;;;5.47;;
67867;SDS011;54672;46.096;14.470;2023-07-16T10:55:20;7.05;;;5.40;;
67867;SDS011;54672;46.096;14.470;2023-07-16T10:57:48;10.35;;;5.93;;
67867;SDS011;54672;46.096;14.470;2023-07-16T11:00:15;11.35;;;5.70;;
67867;SDS011;54672;46.096;14.470;2023-07-16T11:02:42;8.60;;;5.75;;
67867;SDS011;54672;46.096;14.470;2023-07-16T11:05:11;5.93;;;5.00;;
67867;SDS011;54672;46.096;14.470;2023-07-16T11:07:37;10.25;;;5.90;;
67867;SDS011;54672;46.096;14.470;2023-07-16T11:10:03;12.45;;;5.90;;
67867;SDS011;54672;46.096;14.470;2023-07-16T11:12:29;10.35;;;5.57;;
67867;SDS011;54672;46.096;14.470;2023-07-16T11:14:55;10.50;;;5.93;;
67867;SDS011;54672;46.096;14.470;2023-07-16T11:17:22;7.00;;;5.20;;
67867;SDS011;54672;46.096;14.470;2023-07-16T11:19:49;6.30;;;5.25;;
67867;SDS011;54672;46.096;14.470;2023-07-16T11:22:16;8.77;;;5.38;;
67867;SDS011;54672;46.096;14.470;2023-07-16T11:24:43;9.30;;;5.60;;
67867;SDS011;54672;46.096;14.470;2023-07-16T11:27:28;7.20;;;5.00;;
67867;SDS011;54672;46.096;14.470;2023-07-16T11:29:57;8.18;;;5.35;;
67867;SDS011;54672;46.096;14.470;2023-07-16T11:34:56;7.53;;;5.18;;
67867;SDS011;54672;46.096;14.470;2023-07-16T11:37:27;6.57;;;4.78;;
67867;SDS011;54672;46.096;14.470;2023-07-16T11:39:56;7.97;;;5.50;;
67867;SDS011;54672;46.096;14.470;2023-07-16T11:42:23;8.80;;;4.90;;
67867;SDS011;54672;46.096;14.470;2023-07-16T11:44:52;9.80;;;5.35;;
67867;SDS011;54672;46.096;14.470;2023-07-16T11:47:19;6.25;;;5.15;;
67867;SDS011;54672;46.096;14.470;2023-07-16T11:49:45;7.28;;;4.60;;
67867;SDS011;54672;46.096;14.470;2023-07-16T11:52:10;6.75;;;5.10;;
67867;SDS011;54672;46.096;14.470;2023-07-16T11:54:36;7.28;;;5.07;;
67867;SDS011;54672;46.096;14.470;2023-07-16T11:57:01;12.23;;;5.90;;
67867;SDS011;54672;46.096;14.470;2023-07-16T11:59:27;9.13;;;5.00;;
67867;SDS011;54672;46.096;14.470;2023-07-16T12:01:52;6.55;;;4.45;;
67867;SDS011;54672;46.096;14.470;2023-07-16T12:04:19;6.95;;;4.78;;
67867;SDS011;54672;46.096;14.470;2023-07-16T12:06:45;7.20;;;4.95;;
67867;SDS011;54672;46.096;14.470;2023-07-16T12:09:11;5.63;;;4.90;;
67867;SDS011;54672;46.096;14.470;2023-07-16T12:11:36;6.30;;;4.65;;
67867;SDS011;54672;46.096;14.470;2023-07-16T12:14:03;8.98;;;5.00;;
67867;SDS011;54672;46.096;14.470;2023-07-16T12:16:29;7.75;;;4.60;;
67867;SDS011;54672;46.096;14.470;2023-07-16T12:18:55;8.20;;;4.45;;
67867;SDS011;54672;46.096;14.470;2023-07-16T12:21:20;9.88;;;4.57;;
67867;SDS011;54672;46.096;14.470;2023-07-16T12:23:45;6.72;;;4.30;;
67867;SDS011;54672;46.096;14.470;2023-07-16T12:26:11;7.32;;;4.68;;
67867;SDS011;54672;46.096;14.470;2023-07-16T12:28:37;6.00;;;4.60;;
67867;SDS011;54672;46.096;14.470;2023-07-16T12:31:02;8.80;;;4.45;;
67867;SDS011;54672;46.096;14.470;2023-07-16T12:33:28;7.43;;;4.30;;
67867;SDS011;54672;46.096;14.470;2023-07-16T12:35:53;9.05;;;3.95;;
67867;SDS011;54672;46.096;14.470;2023-07-16T12:38:18;8.13;;;4.47;;
67867;SDS011;54672;46.096;14.470;2023-07-16T12:40:44;6.55;;;4.07;;
67867;SDS011;54672;46.096;14.470;2023-07-16T12:43:10;6.72;;;4.10;;
67867;SDS011;54672;46.096;14.470;2023-07-16T12:45:35;7.60;;;4.32;;
67867;SDS011;54672;46.096;14.470;2023-07-16T12:48:00;6.70;;;3.90;;
67867;SDS011;54672;46.096;14.470;2023-07-16T12:50:26;7.10;;;4.07;;
67867;SDS011;54672;46.096;14.470;2023-07-16T12:52:53;10.38;;;4.15;;
67867;SDS011;54672;46.096;14.470;2023-07-16T12:55:19;6.88;;;4.18;;
67867;SDS011;54672;46.096;14.470;2023-07-16T12:57:44;6.18;;;4.07;;
67867;SDS011;54672;46.096;14.470;2023-07-16T13:00:10;7.68;;;4.15;;
67867;SDS011;54672;46.096;14.470;2023-07-16T13:02:36;6.60;;;4.13;;
67867;SDS011;54672;46.096;14.470;2023-07-16T13:05:02;6.45;;;4.30;;
67867;SDS011;54672;46.096;14.470;2023-07-16T13:07:27;6.07;;;4.18;;
67867;SDS011;54672;46.096;14.470;2023-07-16T13:09:54;6.40;;;3.95;;
67867;SDS011;54672;46.096;14.470;2023-07-16T13:12:19;7.78;;;4.20;;
67867;SDS011;54672;46.096;14.470;2023-07-16T13:14:44;10.00;;;4.93;;
67867;SDS011;54672;46.096;14.470;2023-07-16T13:17:10;6.20;;;4.47;;
67867;SDS011;54672;46.096;14.470;2023-07-16T13:19:35;7.90;;;4.55;;
67867;SDS011;54672;46.096;14.470;2023-07-16T13:22:01;6.13;;;4.00;;
67867;SDS011;54672;46.096;14.470;2023-07-16T13:24:27;4.57;;;3.72;;
67867;SDS011;54672;46.096;14.470;2023-07-16T13:26:52;6.88;;;4.15;;
67867;SDS011;54672;46.096;14.470;2023-07-16T13:29:17;7.03;;;3.85;;
67867;SDS011;54672;46.096;14.470;2023-07-16T13:31:43;7.05;;;4.70;;
67867;SDS011;54672;46.096;14.470;2023-07-16T13:34:09;7.05;;;4.05;;
67867;SDS011;54672;46.096;14.470;2023-07-16T13:36:34;7.40;;;3.97;;
67867;SDS011;54672;46.096;14.470;2023-07-16T13:38:59;5.85;;;4.10;;
67867;SDS011;54672;46.096;14.470;2023-07-16T13:41:25;9.15;;;4.30;;
67867;SDS011;54672;46.096;14.470;2023-07-16T13:43:50;5.18;;;4.10;;
67867;SDS011;54672;46.096;14.470;2023-07-16T13:46:16;7.78;;;4.40;;
67867;SDS011;54672;46.096;14.470;2023-07-16T13:48:41;4.90;;;3.67;;
67867;SDS011;54672;46.096;14.470;2023-07-16T13:51:06;5.95;;;4.32;;
67867;SDS011;54672;46.096;14.470;2023-07-16T13:53:32;6.85;;;4.10;;
67867;SDS011;54672;46.096;14.470;2023-07-16T13:55:57;6.25;;;4.30;;
67867;SDS011;54672;46.096;14.470;2023-07-16T13:58:22;7.03;;;4.30;;
67867;SDS011;54672;46.096;14.470;2023-07-16T14:00:49;5.38;;;3.45;;
67867;SDS011;54672;46.096;14.470;2023-07-16T14:03:14;5.35;;;3.70;;
67867;SDS011;54672;46.096;14.470;2023-07-16T14:05:40;5.40;;;3.80;;
67867;SDS011;54672;46.096;14.470;2023-07-16T14:08:05;6.03;;;4.00;;
67867;SDS011;54672;46.096;14.470;2023-07-16T14:10:31;5.45;;;3.80;;
67867;SDS011;54672;46.096;14.470;2023-07-16T14:12:56;5.18;;;3.85;;
67867;SDS011;54672;46.096;14.470;2023-07-16T14:15:22;7.90;;;3.78;;
67867;SDS011;54672;46.096;14.470;2023-07-16T14:17:47;5.88;;;4.10;;
67867;SDS011;54672;46.096;14.470;2023-07-16T14:20:13;5.13;;;3.53;;
67867;SDS011;54672;46.096;14.470;2023-07-16T14:22:38;7.63;;;3.72;;
67867;SDS011;54672;46.096;14.470;2023-07-16T14:25:04;7.65;;;4.13;;
67867;SDS011;54672;46.096;14.470;2023-07-16T14:27:30;8.35;;;4.03;;
67867;SDS011;54672;46.096;14.470;2023-07-16T14:29:56;5.40;;;4.00;;
67867;SDS011;54672;46.096;14.470;2023-07-16T16:23:14;5.88;;;2.90;;
67867;SDS011;54672;46.096;14.470;2023-07-16T16:26:00;4.70;;;3.38;;
67867;SDS011;54672;46.096;14.470;2023-07-16T16:28:31;5.47;;;3.03;;